Time;durP1;ratioP1;P1;durP2;ratioP2;P2;SDS_P1;SDS_P2;PMS_P1;PMS_P2;Temp;Humidity;BMP_temperature;BMP_pressure;BME280_temperature;BME280_humidity;BME280_pressure;Samples;Min_cycle;Max_cycle;Signal;HPM_P1;HPM_P2
2023/11/01 00:01:46;;;;;;;;;;;;;;;;;;5103692;28;19962;-51
2023/11/01 00:04:12;;;;;;;;;;;;;;;;;;5113999;28;19912;-55
2023/11/01 00:06:37;;;;;;;;;;;;;;;;;;5107783;28;19976;-53
2023/11/01 00:09:03;;;;;;;;;;;;;;;;;;5121604;28;19918;-55
2023/11/01 00:11:28;;;;;;;;;;;;;;;;;;5120446;28;19916;-52
2023/11/01 00:13:54;;;;;;;;;;;;;;;;;;5123436;28;19935;-55
2023/11/01 00:16:19;;;;;;;;;;;;;;;;;;5118030;28;19912;-55
2023/11/01 00:18:45;;;;;;;;;;;;;;;;;;5112021;28;19947;-56
2023/11/01 00:21:10;;;;;;;;;;;;;;;;;;5118809;28;19912;-54
2023/11/01 00:23:35;;;;;;;;;;;;;;;;;;5122397;28;19947;-55
2023/11/01 00:26:01;;;;;;;;;;;;;;;;;;5118668;28;19915;-56
2023/11/01 00:28:30;;;;;;;;;;;;;;;;;;5118244;28;19912;-55
2023/11/01 00:30:55;;;;;;;;;;;;;;;;;;5117814;28;19912;-53
2023/11/01 00:33:21;;;;;;;;;;;;;;;;;;5118879;28;19927;-51
2023/11/01 00:35:47;;;;;;;;;;;;;;;;;;5117729;28;19922;-51
2023/11/01 00:38:13;;;;;;;;;;;;;;;;;;5121599;28;19912;-51
2023/11/01 00:40:38;;;;;;;;;;;;;;;;;;5118518;28;19912;-55
2023/11/01 00:43:04;;;;;;;;;;;;;;;;;;5127848;28;20010;-55
2023/11/01 00:45:29;;;;;;;;;;;;;;;;;;5117518;28;19912;-55
2023/11/01 00:47:55;;;;;;;;;;;;;;;;;;5121914;28;19912;-52
2023/11/01 00:50:20;;;;;;;;;;;;;;;;;;5118088;28;19916;-53
2023/11/01 00:52:46;;;;;;;;;;;;;;;;;;5117133;28;19916;-51
2023/11/01 00:55:11;;;;;;;;;;;;;;;;;;5117149;28;19913;-50
2023/11/01 00:57:37;;;;;;;;;;;;;;;;;;5118005;28;19920;-54
2023/11/01 01:00:02;;;;;;;;;;;;;;;;;;5117132;28;19919;-54
2023/11/01 01:02:28;;;;;;;;;;;;;;;;;;5121244;28;19951;-55
2023/11/01 01:04:54;;;;;;;;;;;;;;;;;;5117173;28;19916;-56
2023/11/01 01:07:19;;;;;;;;;;;;;;;;;;5117517;28;19911;-55
2023/11/01 01:09:44;;;;;;;;;;;;;;;;;;5117694;28;19924;-56
2023/11/01 01:12:10;;;;;;;;;;;;;;;;;;5118422;28;19923;-56
2023/11/01 01:14:35;;;;;;;;;;;;;;;;;;5117061;28;19919;-56
2023/11/01 01:17:01;;;;;;;;;;;;;;;;;;5117427;28;19912;-54
2023/11/01 01:19:26;;;;;;;;;;;;;;;;;;5117497;28;19940;-54
2023/11/01 01:21:51;;;;;;;;;;;;;;;;;;5116759;28;19919;-56
2023/11/01 01:24:17;;;;;;;;;;;;;;;;;;5127507;28;19933;-55
2023/11/01 01:26:42;;;;;;;;;;;;;;;;;;5117621;28;19934;-54
2023/11/01 01:29:08;;;;;;;;;;;;;;;;;;5116575;28;19934;-52
2023/11/01 01:31:33;;;;;;;;;;;;;;;;;;5117499;28;19924;-54
2023/11/01 01:33:59;;;;;;;;;;;;;;;;;;5117084;28;19916;-55
2023/11/01 01:36:24;;;;;;;;;;;;;;;;;;5116361;28;19947;-55
2023/11/01 01:38:50;;;;;;;;;;;;;;;;;;5124098;28;19912;-54
2023/11/01 01:41:15;;;;;;;;;;;;;;;;;;5122760;28;19923;-56
2023/11/01 01:43:41;;;;;;;;;;;;;;;;;;5121997;28;19951;-54
2023/11/01 01:46:07;;;;;;;;;;;;;;;;;;5117120;28;19912;-56
2023/11/01 01:48:32;;;;;;;;;;;;;;;;;;5117750;28;19915;-53
2023/11/01 01:50:58;;;;;;;;;;;;;;;;;;5123273;28;19916;-57
2023/11/01 01:53:23;;;;;;;;;;;;;;;;;;5116794;28;19980;-53
2023/11/01 01:55:49;;;;;;;;;;;;;;;;;;5116846;28;19912;-55
2023/11/01 01:58:14;;;;;;;;;;;;;;;;;;5131530;28;19983;-56
2023/11/01 02:00:41;;;;;;;;;;;;;;;;;;5121105;28;19923;-55
2023/11/01 02:03:07;;;;;;;;;;;;;;;;;;5121470;28;19939;-54
2023/11/01 02:05:32;;;;;;;;;;;;;;;;;;5122837;28;19916;-53
2023/11/01 02:07:59;;;;;;;;;;;;;;;;;;5116408;28;19976;-53
2023/11/01 02:10:25;;;;;;;;;;;;;;;;;;5118121;28;19912;-55
2023/11/01 02:12:50;;;;;;;;;;;;;;;;;;5117615;28;20003;-54
2023/11/01 02:15:16;;;;;;;;;;;;;;;;;;5123088;28;19912;-54
2023/11/01 02:17:41;;;;;;;;;;;;;;;;;;5116515;28;19922;-56
2023/11/01 02:20:07;;;;;;;;;;;;;;;;;;5115691;28;19960;-54
2023/11/01 02:22:32;;;;;;;;;;;;;;;;;;5116223;28;19936;-55
2023/11/01 02:24:58;;;;;;;;;;;;;;;;;;5122865;28;19916;-55
2023/11/01 02:27:24;;;;;;;;;;;;;;;;;;5114618;28;19916;-55
2023/11/01 02:29:50;;;;;;;;;;;;;;;;;;5116525;28;19919;-54
2023/11/01 02:32:16;;;;;;;;;;;;;;;;;;5115966;28;19938;-54
2023/11/01 02:34:41;;;;;;;;;;;;;;;;;;5119642;28;19912;-55
2023/11/01 02:37:07;;;;;;;;;;;;;;;;;;5115802;28;19919;-54
2023/11/01 02:39:32;;;;;;;;;;;;;;;;;;5121443;28;19912;-55
2023/11/01 02:41:59;;;;;;;;;;;;;;;;;;5116580;28;19951;-54
2023/11/01 02:44:24;;;;;;;;;;;;;;;;;;5115143;28;19916;-56
2023/11/01 02:46:50;;;;;;;;;;;;;;;;;;5115922;28;20003;-53
2023/11/01 02:49:15;;;;;;;;;;;;;;;;;;5117069;28;19912;-56
2023/11/01 02:51:41;;;;;;;;;;;;;;;;;;5115900;28;19916;-55
2023/11/01 02:54:06;;;;;;;;;;;;;;;;;;5124426;28;19943;-56
2023/11/01 02:56:31;;;;;;;;;;;;;;;;;;5115725;28;19912;-55
2023/11/01 02:58:57;;;;;;;;;;;;;;;;;;5115025;28;19939;-52
2023/11/01 03:01:22;;;;;;;;;;;;;;;;;;5116192;28;19912;-55
2023/11/01 03:03:48;;;;;;;;;;;;;;;;;;5120794;28;19965;-54
2023/11/01 03:06:14;;;;;;;;;;;;;;;;;;5116776;28;19938;-54
2023/11/01 03:08:39;;;;;;;;;;;;;;;;;;5115624;28;19912;-54
2023/11/01 03:11:05;;;;;;;;;;;;;;;;;;5116369;28;19969;-56
2023/11/01 03:13:30;;;;;;;;;;;;;;;;;;5118020;28;19919;-55
2023/11/01 03:15:56;;;;;;;;;;;;;;;;;;5116763;28;19918;-53
2023/11/01 03:18:21;;;;;;;;;;;;;;;;;;5114557;28;19923;-54
2023/11/01 03:20:47;;;;;;;;;;;;;;;;;;5126554;28;19912;-53
2023/11/01 03:23:12;;;;;;;;;;;;;;;;;;5115385;28;19948;-48
2023/11/01 03:25:38;;;;;;;;;;;;;;;;;;5115480;28;19920;-50
2023/11/01 03:28:03;;;;;;;;;;;;;;;;;;5114586;28;19930;-53
2023/11/01 03:30:29;;;;;;;;;;;;;;;;;;5123100;28;19927;-54
2023/11/01 03:32:54;;;;;;;;;;;;;;;;;;5114519;28;19916;-52
2023/11/01 03:35:20;;;;;;;;;;;;;;;;;;5125678;28;19923;-54
2023/11/01 03:37:45;;;;;;;;;;;;;;;;;;5114656;28;19919;-53
2023/11/01 03:40:11;;;;;;;;;;;;;;;;;;5116482;28;19916;-52
2023/11/01 03:42:37;;;;;;;;;;;;;;;;;;5118886;28;19920;-52
2023/11/01 03:45:02;;;;;;;;;;;;;;;;;;5127365;28;19912;-53
2023/11/01 03:47:28;;;;;;;;;;;;;;;;;;5118629;28;19912;-52
2023/11/01 03:49:53;;;;;;;;;;;;;;;;;;5119028;28;19923;-54
2023/11/01 03:52:19;;;;;;;;;;;;;;;;;;5118240;28;19965;-53
2023/11/01 03:54:44;;;;;;;;;;;;;;;;;;5123884;28;19920;-55
2023/11/01 03:57:10;;;;;;;;;;;;;;;;;;5118445;28;19913;-52
2023/11/01 03:59:35;;;;;;;;;;;;;;;;;;5121838;28;19916;-53
2023/11/01 04:02:01;;;;;;;;;;;;;;;;;;5128334;28;19922;-55
2023/11/01 04:04:26;;;;;;;;;;;;;;;;;;5120655;28;19954;-54
2023/11/01 04:06:52;;;;;;;;;;;;;;;;;;5119225;28;19912;-53
2023/11/01 04:09:17;;;;;;;;;;;;;;;;;;5118890;28;19983;-53
2023/11/01 04:11:43;;;;;;;;;;;;;;;;;;5122721;28;19916;-55
2023/11/01 04:14:08;;;;;;;;;;;;;;;;;;5121060;28;19934;-54
2023/11/01 04:16:34;;;;;;;;;;;;;;;;;;5129026;28;19916;-55
2023/11/01 04:19:02;;;;;;;;;;;;;;;;;;5122341;28;19983;-55
2023/11/01 04:21:27;;;;;;;;;;;;;;;;;;5127130;28;19927;-53
2023/11/01 04:23:53;;;;;;;;;;;;;;;;;;5117844;28;19912;-53
2023/11/01 04:26:19;;;;;;;;;;;;;;;;;;5128099;28;19916;-56
2023/11/01 04:28:44;;;;;;;;;;;;;;;;;;5118651;28;19992;-58
2023/11/01 04:31:10;;;;;;;;;;;;;;;;;;5118633;28;19912;-52
2023/11/01 04:33:35;;;;;;;;;;;;;;;;;;5118578;28;19922;-54
2023/11/01 04:36:01;;;;;;;;;;;;;;;;;;5124810;28;19916;-55
2023/11/01 04:38:26;;;;;;;;;;;;;;;;;;5118165;28;19912;-54
2023/11/01 04:40:51;;;;;;;;;;;;;;;;;;5118444;28;19938;-54
2023/11/01 04:43:19;;;;;;;;;;;;;;;;;;5118174;28;19920;-55
2023/11/01 04:45:45;;;;;;;;;;;;;;;;;;5118301;28;19913;-54
2023/11/01 04:48:10;;;;;;;;;;;;;;;;;;5117948;28;19995;-53
2023/11/01 04:50:36;;;;;;;;;;;;;;;;;;5124179;28;19939;-55
2023/11/01 04:53:01;;;;;;;;;;;;;;;;;;5121002;28;19916;-53
2023/11/01 04:55:27;;;;;;;;;;;;;;;;;;5128052;28;19912;-54
2023/11/01 04:57:52;;;;;;;;;;;;;;;;;;5121066;28;19912;-55
2023/11/01 05:00:18;;;;;;;;;;;;;;;;;;5121228;28;19911;-54
2023/11/01 05:02:45;;;;;;;;;;;;;;;;;;5120797;28;19922;-55
2023/11/01 05:05:11;;;;;;;;;;;;;;;;;;5124795;28;19916;-54
2023/11/01 05:07:37;;;;;;;;;;;;;;;;;;5120946;28;19916;-56
2023/11/01 05:10:02;;;;;;;;;;;;;;;;;;5117863;28;19955;-55
2023/11/01 05:12:27;;;;;;;;;;;;;;;;;;5117387;28;19922;-56
2023/11/01 05:14:54;;;;;;;;;;;;;;;;;;5121277;28;19912;-55
2023/11/01 05:17:19;;;;;;;;;;;;;;;;;;5120432;28;19912;-55
2023/11/01 05:19:45;;;;;;;;;;;;;;;;;;5117947;28;19975;-55
2023/11/01 05:22:10;;;;;;;;;;;;;;;;;;5117324;28;19955;-53
2023/11/01 05:24:36;;;;;;;;;;;;;;;;;;5117781;28;19912;-54
2023/11/01 05:27:01;;;;;;;;;;;;;;;;;;5116581;28;19916;-55
2023/11/01 05:29:26;;;;;;;;;;;;;;;;;;5117537;28;19919;-55
2023/11/01 05:31:52;;;;;;;;;;;;;;;;;;5127963;28;19916;-56
2023/11/01 05:34:17;;;;;;;;;;;;;;;;;;5117451;28;19920;-54
2023/11/01 05:36:43;;;;;;;;;;;;;;;;;;5117108;28;19939;-55
2023/11/01 05:39:08;;;;;;;;;;;;;;;;;;5117568;28;19967;-56
2023/11/01 05:41:34;;;;;;;;;;;;;;;;;;5124351;28;19924;-56
2023/11/01 05:43:59;;;;;;;;;;;;;;;;;;5117202;28;19931;-52
2023/11/01 05:46:25;;;;;;;;;;;;;;;;;;5127758;28;19924;-52
2023/11/01 05:48:50;;;;;;;;;;;;;;;;;;5116442;28;19934;-54
2023/11/01 05:51:16;;;;;;;;;;;;;;;;;;5120576;28;19941;-52
2023/11/01 05:53:41;;;;;;;;;;;;;;;;;;5117092;28;19912;-53
2023/11/01 05:56:07;;;;;;;;;;;;;;;;;;5123996;28;19947;-52
2023/11/01 05:58:32;;;;;;;;;;;;;;;;;;5116868;28;20015;-49
2023/11/01 06:00:58;;;;;;;;;;;;;;;;;;5117198;28;19912;-50
2023/11/01 06:03:25;;;;;;;;;;;;;;;;;;5115724;28;19939;-56
2023/11/01 06:05:52;;;;;;;;;;;;;;;;;;5121037;28;19911;-52
2023/11/01 06:08:17;;;;;;;;;;;;;;;;;;5116700;28;19912;-50
2023/11/01 06:10:44;;;;;;;;;;;;;;;;;;5116528;28;19935;-52
2023/11/01 06:13:10;;;;;;;;;;;;;;;;;;5123669;28;19983;-54
2023/11/01 06:15:38;;;;;;;;;;;;;;;;;;5116956;28;19912;-54
2023/11/01 06:18:05;;;;;;;;;;;;;;;;;;5116128;28;19912;-56
2023/11/01 06:20:31;;;;;;;;;;;;;;;;;;5116051;28;19952;-56
2023/11/01 06:22:57;;;;;;;;;;;;;;;;;;5121122;28;19912;-60
2023/11/01 06:25:22;;;;;;;;;;;;;;;;;;5115642;28;19912;-60
2023/11/01 06:27:48;;;;;;;;;;;;;;;;;;5116518;28;19937;-60
2023/11/01 06:30:13;;;;;;;;;;;;;;;;;;5116139;28;19916;-55
2023/11/01 06:32:39;;;;;;;;;;;;;;;;;;5121241;28;19930;-58
2023/11/01 06:35:04;;;;;;;;;;;;;;;;;;5116366;28;19944;-55
2023/11/01 06:37:30;;;;;;;;;;;;;;;;;;5124458;28;19912;-57
2023/11/01 06:39:55;;;;;;;;;;;;;;;;;;5116174;28;19951;-55
2023/11/01 06:42:21;;;;;;;;;;;;;;;;;;5125228;28;19919;-58
2023/11/01 06:44:46;;;;;;;;;;;;;;;;;;5120066;28;19931;-60
2023/11/01 06:47:12;;;;;;;;;;;;;;;;;;5121255;28;19919;-57
2023/11/01 06:49:38;;;;;;;;;;;;;;;;;;5116201;28;19931;-61
2023/11/01 06:52:03;;;;;;;;;;;;;;;;;;5123824;28;19979;-61
2023/11/01 06:54:28;;;;;;;;;;;;;;;;;;5119858;28;19916;-57
2023/11/01 06:56:54;;;;;;;;;;;;;;;;;;5118037;28;19939;-56
2023/11/01 06:59:20;;;;;;;;;;;;;;;;;;5115701;28;19912;-59
2023/11/01 07:01:45;;;;;;;;;;;;;;;;;;5119952;28;19919;-57
2023/11/01 07:04:11;;;;;;;;;;;;;;;;;;5115388;28;19944;-55
2023/11/01 07:06:36;;;;;;;;;;;;;;;;;;5123924;28;19922;-58
2023/11/01 07:09:02;;;;;;;;;;;;;;;;;;5119679;28;19912;-59
2023/11/01 07:11:27;;;;;;;;;;;;;;;;;;5115648;28;19916;-61
2023/11/01 07:13:53;;;;;;;;;;;;;;;;;;5116758;28;19912;-61
2023/11/01 07:16:19;;;;;;;;;;;;;;;;;;5120088;28;19919;-61
2023/11/01 07:18:44;;;;;;;;;;;;;;;;;;5119455;28;19923;-58
2023/11/01 07:21:10;;;;;;;;;;;;;;;;;;5115383;28;19912;-55
2023/11/01 07:23:35;;;;;;;;;;;;;;;;;;5128923;28;19918;-57
2023/11/01 07:26:01;;;;;;;;;;;;;;;;;;5116627;28;19954;-59
2023/11/01 07:28:26;;;;;;;;;;;;;;;;;;5121189;28;19934;-59
2023/11/01 07:30:52;;;;;;;;;;;;;;;;;;5115593;28;19912;-60
2023/11/01 07:33:18;;;;;;;;;;;;;;;;;;5115171;28;19916;-59
2023/11/01 07:35:43;;;;;;;;;;;;;;;;;;5115437;28;19916;-57
2023/11/01 07:38:08;;;;;;;;;;;;;;;;;;5119368;28;19912;-56
2023/11/01 07:40:34;;;;;;;;;;;;;;;;;;5115458;28;19912;-60
2023/11/01 07:43:00;;;;;;;;;;;;;;;;;;5122434;28;19916;-61
2023/11/01 07:45:25;;;;;;;;;;;;;;;;;;5115121;28;19912;-57
2023/11/01 07:47:50;;;;;;;;;;;;;;;;;;5116102;28;19975;-58
2023/11/01 07:50:16;;;;;;;;;;;;;;;;;;5115346;28;19912;-57
2023/11/01 07:52:43;;;;;;;;;;;;;;;;;;5117637;28;19923;-58
2023/11/01 07:55:08;;;;;;;;;;;;;;;;;;5114591;28;19908;-56
2023/11/01 07:57:33;;;;;;;;;;;;;;;;;;5123646;28;19912;-57
2023/11/01 08:00:00;;;;;;;;;;;;;;;;;;5115191;28;19953;-58
2023/11/01 08:02:26;;;;;;;;;;;;;;;;;;5117151;28;19935;-57
2023/11/01 08:04:51;;;;;;;;;;;;;;;;;;5115189;28;19912;-58
2023/11/01 08:07:17;;;;;;;;;;;;;;;;;;5120399;28;19912;-59
2023/11/01 08:09:42;;;;;;;;;;;;;;;;;;5114535;28;19979;-56
2023/11/01 08:12:08;;;;;;;;;;;;;;;;;;5115018;28;19916;-59
2023/11/01 08:14:33;;;;;;;;;;;;;;;;;;5115156;28;19923;-59
2023/11/01 08:16:58;;;;;;;;;;;;;;;;;;5118261;28;19912;-61
2023/11/01 08:19:24;;;;;;;;;;;;;;;;;;5115196;28;19923;-59
2023/11/01 08:21:49;;;;;;;;;;;;;;;;;;5115266;28;19934;-60
2023/11/01 08:24:15;;;;;;;;;;;;;;;;;;5114904;28;19912;-59
2023/11/01 08:26:40;;;;;;;;;;;;;;;;;;5105788;28;19948;-56
2023/11/01 08:29:06;;;;;;;;;;;;;;;;;;5117107;28;19969;-60
2023/11/01 08:31:31;;;;;;;;;;;;;;;;;;5118708;28;19924;-59
2023/11/01 08:33:57;;;;;;;;;;;;;;;;;;5122899;28;19918;-62
2023/11/01 08:36:22;;;;;;;;;;;;;;;;;;5118352;28;19919;-58
2023/11/01 08:38:48;;;;;;;;;;;;;;;;;;5125354;28;19912;-55
2023/11/01 08:41:13;;;;;;;;;;;;;;;;;;5118299;28;19926;-57
2023/11/01 08:43:39;;;;;;;;;;;;;;;;;;5119710;28;19912;-60
2023/11/01 08:46:05;;;;;;;;;;;;;;;;;;5118650;28;19951;-60
2023/11/01 08:48:31;;;;;;;;;;;;;;;;;;5122607;28;19908;-58
2023/11/01 08:50:56;;;;;;;;;;;;;;;;;;5118374;28;19920;-58
2023/11/01 08:53:21;;;;;;;;;;;;;;;;;;5124449;28;19920;-61
2023/11/01 08:55:47;;;;;;;;;;;;;;;;;;5121167;27;19912;-57
2023/11/01 08:58:13;;;;;;;;;;;;;;;;;;5119072;28;19912;-58
2023/11/01 09:00:39;;;;;;;;;;;;;;;;;;5118109;28;19918;-58
2023/11/01 09:03:05;;;;;;;;;;;;;;;;;;5119068;28;19916;-58
2023/11/01 09:05:31;;;;;;;;;;;;;;;;;;5121249;27;19913;-56
2023/11/01 09:07:57;;;;;;;;;;;;;;;;;;5120148;28;19912;-59
2023/11/01 09:10:22;;;;;;;;;;;;;;;;;;5117911;28;19943;-61
2023/11/01 09:12:48;;;;;;;;;;;;;;;;;;5109594;28;19938;-59
2023/11/01 09:15:13;;;;;;;;;;;;;;;;;;5115398;28;19993;-57
2023/11/01 09:17:39;;;;;;;;;;;;;;;;;;5116761;28;19912;-59
2023/11/01 09:20:06;;;;;;;;;;;;;;;;;;5117871;28;19916;-61
2023/11/01 09:22:31;;;;;;;;;;;;;;;;;;5116549;28;19912;-61
2023/11/01 09:24:57;;;;;;;;;;;;;;;;;;5117384;28;19912;-59
2023/11/01 09:27:22;;;;;;;;;;;;;;;;;;5117279;28;19923;-59
2023/11/01 09:29:48;;;;;;;;;;;;;;;;;;5117609;28;19912;-59
2023/11/01 09:32:13;;;;;;;;;;;;;;;;;;5117312;28;19963;-58
2023/11/01 09:34:39;;;;;;;;;;;;;;;;;;5118509;28;19912;-58
2023/11/01 09:37:04;;;;;;;;;;;;;;;;;;5117265;28;19947;-59
2023/11/01 09:39:30;;;;;;;;;;;;;;;;;;5117167;28;19923;-59
2023/11/01 09:41:57;;;;;;;;;;;;;;;;;;5116320;28;19923;-60
2023/11/01 09:44:22;;;;;;;;;;;;;;;;;;5128960;28;19912;-56
2023/11/01 09:46:48;;;;;;;;;;;;;;;;;;5115890;28;19912;-60
2023/11/01 09:49:13;;;;;;;;;;;;;;;;;;5117395;28;19912;-59
2023/11/01 09:51:39;;;;;;;;;;;;;;;;;;5112664;28;19916;-58
2023/11/01 09:54:09;;;;;;;;;;;;;;;;;;5113826;28;19916;-61
2023/11/01 09:56:35;;;;;;;;;;;;;;;;;;5116625;28;19916;-61
2023/11/01 09:59:00;;;;;;;;;;;;;;;;;;5113429;28;19912;-61
2023/11/01 10:01:26;;;;;;;;;;;;;;;;;;5115900;28;19919;-59
2023/11/01 10:03:51;;;;;;;;;;;;;;;;;;5116805;28;19976;-61
2023/11/01 10:06:17;;;;;;;;;;;;;;;;;;5114429;28;19923;-58
2023/11/01 10:08:42;;;;;;;;;;;;;;;;;;5113486;28;19979;-58
2023/11/01 10:11:08;;;;;;;;;;;;;;;;;;5116531;28;19919;-59
2023/11/01 10:13:34;;;;;;;;;;;;;;;;;;5113986;28;19920;-60
2023/11/01 10:16:00;;;;;;;;;;;;;;;;;;5110810;28;19922;-60
2023/11/01 10:18:25;;;;;;;;;;;;;;;;;;5121966;28;19911;-57
2023/11/01 10:20:51;;;;;;;;;;;;;;;;;;5117027;28;19919;-57
2023/11/01 10:23:16;;;;;;;;;;;;;;;;;;5116152;28;19992;-56
2023/11/01 10:25:42;;;;;;;;;;;;;;;;;;5115877;28;19986;-54
2023/11/01 10:28:07;;;;;;;;;;;;;;;;;;5111623;28;19976;-56
2023/11/01 10:30:32;;;;;;;;;;;;;;;;;;5106664;28;19935;-57
2023/11/01 10:32:59;;;;;;;;;;;;;;;;;;5116219;28;20808;-59
2023/11/01 10:35:26;;;;;;;;;;;;;;;;;;5115719;28;19916;-59
2023/11/01 10:37:51;;;;;;;;;;;;;;;;;;5116125;28;19920;-56
2023/11/01 10:40:17;;;;;;;;;;;;;;;;;;5115932;28;19920;-58
2023/11/01 10:42:42;;;;;;;;;;;;;;;;;;5111891;28;19979;-55
2023/11/01 10:45:08;;;;;;;;;;;;;;;;;;5149173;27;19967;-58
2023/11/01 10:47:34;;;;;;;;;;;;;;;;;;5115814;28;19938;-59
2023/11/01 10:49:59;;;;;;;;;;;;;;;;;;5104751;28;19920;-59
2023/11/01 10:52:25;;;;;;;;;;;;;;;;;;5115667;28;19941;-60
2023/11/01 10:54:50;;;;;;;;;;;;;;;;;;5115584;28;19919;-59
2023/11/01 10:57:16;;;;;;;;;;;;;;;;;;5114612;28;19963;-59
2023/11/01 10:59:41;;;;;;;;;;;;;;;;;;5114021;28;19920;-58
2023/11/01 11:02:07;;;;;;;;;;;;;;;;;;5105416;28;19919;-60
2023/11/01 11:04:32;;;;;;;;;;;;;;;;;;5117780;28;19947;-58
2023/11/01 11:06:57;;;;;;;;;;;;;;;;;;5119128;28;19912;-58
2023/11/01 11:09:23;;;;;;;;;;;;;;;;;;5115566;28;19912;-59
2023/11/01 11:11:49;;;;;;;;;;;;;;;;;;5114568;28;19923;-58
2023/11/01 11:14:14;;;;;;;;;;;;;;;;;;5127433;28;19930;-58
2023/11/01 11:16:40;;;;;;;;;;;;;;;;;;5119633;28;19916;-56
2023/11/01 11:19:05;;;;;;;;;;;;;;;;;;5113948;28;19923;-60
2023/11/01 11:21:31;;;;;;;;;;;;;;;;;;5115764;28;19916;-56
2023/11/01 11:23:57;;;;;;;;;;;;;;;;;;5115612;28;19912;-58
2023/11/01 11:26:22;;;;;;;;;;;;;;;;;;5117230;28;19916;-60
2023/11/01 11:28:48;;;;;;;;;;;;;;;;;;5112077;28;19919;-58
2023/11/01 11:31:15;;;;;;;;;;;;;;;;;;5116887;28;19934;-58
2023/11/01 11:33:40;;;;;;;;;;;;;;;;;;5108933;28;19919;-60
2023/11/01 11:36:06;;;;;;;;;;;;;;;;;;5110546;28;19947;-56
2023/11/01 11:38:35;;;;;;;;;;;;;;;;;;5112783;28;19927;-57
2023/11/01 11:41:00;;;;;;;;;;;;;;;;;;5106927;28;19927;-59
2023/11/01 11:43:25;;;;;;;;;;;;;;;;;;5102546;28;19912;-60
2023/11/01 11:45:51;;;;;;;;;;;;;;;;;;5114711;28;19912;-60
2023/11/01 11:48:16;;;;;;;;;;;;;;;;;;5119182;28;20004;-57
2023/11/01 11:50:42;;;;;;;;;;;;;;;;;;5118343;28;19971;-60
2023/11/01 11:53:07;;;;;;;;;;;;;;;;;;5108618;28;20002;-60
2023/11/01 11:55:32;;;;;;;;;;;;;;;;;;5114595;28;19934;-60
2023/11/01 11:57:58;;;;;;;;;;;;;;;;;;5124474;28;19912;-59
2023/11/01 12:00:23;;;;;;;;;;;;;;;;;;5116559;28;19912;-59
2023/11/01 12:02:49;;;;;;;;;;;;;;;;;;5119259;28;19912;-56
2023/11/01 12:05:15;;;;;;;;;;;;;;;;;;5110125;28;19923;-55
2023/11/01 12:07:42;;;;;;;;;;;;;;;;;;5118837;28;19912;-56
2023/11/01 12:10:08;;;;;;;;;;;;;;;;;;5119611;28;19911;-60
2023/11/01 12:12:35;;;;;;;;;;;;;;;;;;5118089;28;19924;-59
2023/11/01 12:15:01;;;;;;;;;;;;;;;;;;5118888;27;19929;-62
2023/11/01 12:17:26;;;;;;;;;;;;;;;;;;5124054;28;19918;-59
2023/11/01 12:19:53;;;;;;;;;;;;;;;;;;5125776;28;20002;-58
2023/11/01 12:22:18;;;;;;;;;;;;;;;;;;5119424;28;19916;-61
2023/11/01 12:24:46;;;;;;;;;;;;;;;;;;5143811;27;19919;-60
2023/11/01 12:27:13;;;;;;;;;;;;;;;;;;5115111;28;19916;-57
2023/11/01 12:29:38;;;;;;;;;;;;;;;;;;5110782;28;19919;-56
2023/11/01 12:32:04;;;;;;;;;;;;;;;;;;5107542;28;19943;-57
2023/11/01 12:34:30;;;;;;;;;;;;;;;;;;5114212;28;19912;-61
2023/11/01 12:36:55;;;;;;;;;;;;;;;;;;5127096;28;19955;-62
2023/11/01 12:39:21;;;;;;;;;;;;;;;;;;5117398;28;19927;-57
2023/11/01 12:41:46;;;;;;;;;;;;;;;;;;5120136;28;19971;-60
2023/11/01 12:44:12;;;;;;;;;;;;;;;;;;5113947;28;19920;-60
2023/11/01 12:46:37;;;;;;;;;;;;;;;;;;5123776;28;19942;-60
2023/11/01 12:49:02;;;;;;;;;;;;;;;;;;5114240;28;19971;-58
2023/11/01 12:51:28;;;;;;;;;;;;;;;;;;5110919;28;19912;-60
2023/11/01 12:53:57;;;;;;;;;;;;;;;;;;5113368;28;19938;-61
2023/11/01 12:56:22;;;;;;;;;;;;;;;;;;5120168;28;19947;-60
2023/11/01 12:58:48;;;;;;;;;;;;;;;;;;5117727;28;19923;-59
2023/11/01 13:01:16;;;;;;;;;;;;;;;;;;5118497;28;19912;-61
2023/11/01 13:03:41;;;;;;;;;;;;;;;;;;5114666;28;19921;-60
2023/11/01 13:06:07;;;;;;;;;;;;;;;;;;5119708;28;19916;-61
2023/11/01 13:08:32;;;;;;;;;;;;;;;;;;5105991;28;19914;-61
2023/11/01 13:10:59;;;;;;;;;;;;;;;;;;5124465;28;19940;-61
2023/11/01 13:13:25;;;;;;;;;;;;;;;;;;5117876;28;19917;-60
2023/11/01 13:15:51;;;;;;;;;;;;;;;;;;5109076;28;19955;-59
2023/11/01 13:18:16;;;;;;;;;;;;;;;;;;5115417;28;19912;-60
2023/11/01 13:20:43;;;;;;;;;;;;;;;;;;5117338;28;19934;-58
2023/11/01 13:23:08;;;;;;;;;;;;;;;;;;5109624;28;19919;-58
2023/11/01 13:25:34;;;;;;;;;;;;;;;;;;5113933;28;19916;-60
2023/11/01 13:28:01;;;;;;;;;;;;;;;;;;5108641;28;20006;-60
2023/11/01 13:30:27;;;;;;;;;;;;;;;;;;5124644;28;19912;-61
2023/11/01 13:32:52;;;;;;;;;;;;;;;;;;5117494;28;19923;-60
2023/11/01 13:35:18;;;;;;;;;;;;;;;;;;5105698;28;19912;-59
2023/11/01 13:37:43;;;;;;;;;;;;;;;;;;5116340;28;19955;-58
2023/11/01 13:40:09;;;;;;;;;;;;;;;;;;5121577;28;19912;-59
2023/11/01 13:42:35;;;;;;;;;;;;;;;;;;5098042;28;19995;-57
2023/11/01 13:45:01;;;;;;;;;;;;;;;;;;5115019;28;19908;-57
2023/11/01 13:47:26;;;;;;;;;;;;;;;;;;5106885;28;19983;-61
2023/11/01 13:49:52;;;;;;;;;;;;;;;;;;5100659;28;19912;-59
2023/11/01 13:52:17;;;;;;;;;;;;;;;;;;5114132;28;19956;-60
2023/11/01 13:54:43;;;;;;;;;;;;;;;;;;5110679;28;19920;-59
2023/11/01 13:57:09;;;;;;;;;;;;;;;;;;5143956;27;19912;-61
2023/11/01 13:59:34;;;;;;;;;;;;;;;;;;5116207;28;19946;-60
2023/11/01 14:02:00;;;;;;;;;;;;;;;;;;5121843;28;19916;-58
2023/11/01 14:04:26;;;;;;;;;;;;;;;;;;5099803;28;19913;-60
2023/11/01 14:06:51;;;;;;;;;;;;;;;;;;5106071;28;19920;-60
2023/11/01 14:09:17;;;;;;;;;;;;;;;;;;5103512;28;19943;-60
2023/11/01 14:11:44;;;;;;;;;;;;;;;;;;5107434;28;19916;-60
2023/11/01 14:14:12;;;;;;;;;;;;;;;;;;5109700;28;19912;-54
2023/11/01 14:16:38;;;;;;;;;;;;;;;;;;5103213;28;19916;-60
2023/11/01 14:19:03;;;;;;;;;;;;;;;;;;5115814;28;19916;-60
2023/11/01 14:21:29;;;;;;;;;;;;;;;;;;5120570;28;19920;-61
2023/11/01 14:23:54;;;;;;;;;;;;;;;;;;5110554;28;19912;-60
2023/11/01 14:26:20;;;;;;;;;;;;;;;;;;5108790;28;19973;-59
2023/11/01 14:28:45;;;;;;;;;;;;;;;;;;5122198;28;19916;-57
2023/11/01 14:31:11;;;;;;;;;;;;;;;;;;5117916;28;19915;-56
2023/11/01 14:33:37;;;;;;;;;;;;;;;;;;5116173;28;19923;-56
2023/11/01 14:36:04;;;;;;;;;;;;;;;;;;5108184;28;19995;-59
2023/11/01 14:38:29;;;;;;;;;;;;;;;;;;5110203;28;19919;-58
2023/11/01 14:40:55;;;;;;;;;;;;;;;;;;5113283;28;19925;-54
2023/11/01 14:43:20;;;;;;;;;;;;;;;;;;5107138;28;19923;-55
2023/11/01 14:45:46;;;;;;;;;;;;;;;;;;5115971;28;19935;-52
2023/11/01 14:48:11;;;;;;;;;;;;;;;;;;5116431;28;19912;-54
2023/11/01 14:50:37;;;;;;;;;;;;;;;;;;5120516;28;19920;-53
2023/11/01 14:53:03;;;;;;;;;;;;;;;;;;5118555;28;19985;-53
2023/11/01 14:55:28;;;;;;;;;;;;;;;;;;5115446;28;19912;-56
2023/11/01 14:57:54;;;;;;;;;;;;;;;;;;5123840;28;19927;-55
2023/11/01 15:00:19;;;;;;;;;;;;;;;;;;5106934;28;19934;-57
2023/11/01 15:02:46;;;;;;;;;;;;;;;;;;5112255;28;19967;-51
2023/11/01 15:05:12;;;;;;;;;;;;;;;;;;5106938;28;19916;-55
2023/11/01 15:07:38;;;;;;;;;;;;;;;;;;5112948;28;19947;-55
2023/11/01 15:10:03;;;;;;;;;;;;;;;;;;5113889;28;19913;-54
2023/11/01 15:12:28;;;;;;;;;;;;;;;;;;5118864;28;19927;-53
2023/11/01 15:14:54;;;;;;;;;;;;;;;;;;5108040;28;19934;-54
2023/11/01 15:17:19;;;;;;;;;;;;;;;;;;5110663;28;19965;-53
2023/11/01 15:19:45;;;;;;;;;;;;;;;;;;5112898;28;19983;-56
2023/11/01 15:22:10;;;;;;;;;;;;;;;;;;5122020;28;19920;-52
2023/11/01 15:24:35;;;;;;;;;;;;;;;;;;5115254;28;19919;-54
2023/11/01 15:27:00;;;;;;;;;;;;;;;;;;5115095;28;19920;-56
2023/11/01 15:29:26;;;;;;;;;;;;;;;;;;5114255;28;19927;-55
2023/11/01 15:31:53;;;;;;;;;;;;;;;;;;5118493;28;19922;-56
2023/11/01 15:34:18;;;;;;;;;;;;;;;;;;5114974;28;19908;-55
2023/11/01 15:36:44;;;;;;;;;;;;;;;;;;5112859;28;19965;-57
2023/11/01 15:39:13;;;;;;;;;;;;;;;;;;5113406;28;19914;-55
2023/11/01 15:41:40;;;;;;;;;;;;;;;;;;5107632;28;19916;-53
2023/11/01 15:44:06;;;;;;;;;;;;;;;;;;5109829;28;20006;-55
2023/11/01 15:46:31;;;;;;;;;;;;;;;;;;5110977;28;19912;-54
2023/11/01 15:48:56;;;;;;;;;;;;;;;;;;5112402;28;19983;-53
2023/11/01 15:51:22;;;;;;;;;;;;;;;;;;5112551;28;19916;-56
2023/11/01 15:53:48;;;;;;;;;;;;;;;;;;5122116;28;19916;-57
2023/11/01 15:56:14;;;;;;;;;;;;;;;;;;5111682;28;19912;-55
2023/11/01 15:58:40;;;;;;;;;;;;;;;;;;5112028;28;19912;-54
2023/11/01 16:01:05;;;;;;;;;;;;;;;;;;5110064;28;19912;-55
2023/11/01 16:03:31;;;;;;;;;;;;;;;;;;5119200;28;19945;-54
2023/11/01 16:05:56;;;;;;;;;;;;;;;;;;5111667;28;20022;-57
2023/11/01 16:08:22;;;;;;;;;;;;;;;;;;5114681;28;19976;-56
2023/11/01 16:10:47;;;;;;;;;;;;;;;;;;5109890;28;19912;-53
2023/11/01 16:13:13;;;;;;;;;;;;;;;;;;5110985;28;19975;-56
2023/11/01 16:15:38;;;;;;;;;;;;;;;;;;5102266;28;19912;-52
2023/11/01 16:18:04;;;;;;;;;;;;;;;;;;5110473;28;19919;-53
2023/11/01 16:20:29;;;;;;;;;;;;;;;;;;5111011;28;19916;-52
2023/11/01 16:22:55;;;;;;;;;;;;;;;;;;5108637;28;19916;-56
2023/11/01 16:25:21;;;;;;;;;;;;;;;;;;5096353;28;19916;-55
2023/11/01 16:27:49;;;;;;;;;;;;;;;;;;5111900;28;19912;-55
2023/11/01 16:30:16;;;;;;;;;;;;;;;;;;5113998;28;19908;-55
2023/11/01 16:32:42;;;;;;;;;;;;;;;;;;5116926;28;19927;-53
2023/11/01 16:35:08;;;;;;;;;;;;;;;;;;5114526;28;19912;-55